sensor_id;sensor_type;location;lat;lon;timestamp;P1;durP1;ratioP1;P2;durP2;ratioP2
19004;SDS011;9635;52.078;8.648;2022-12-04T00:02:03;71.38;;;29.90;;
19004;SDS011;9635;52.078;8.648;2022-12-04T00:07:08;69.88;;;30.23;;
19004;SDS011;9635;52.078;8.648;2022-12-04T00:12:10;77.00;;;29.83;;
19004;SDS011;9635;52.078;8.648;2022-12-04T00:17:13;72.70;;;29.85;;
19004;SDS011;9635;52.078;8.648;2022-12-04T00:22:17;75.80;;;30.45;;
19004;SDS011;9635;52.078;8.648;2022-12-04T00:27:21;73.30;;;29.13;;
19004;SDS011;9635;52.078;8.648;2022-12-04T00:32:24;68.70;;;27.83;;
19004;SDS011;9635;52.078;8.648;2022-12-04T00:37:28;80.95;;;31.60;;
19004;SDS011;9635;52.078;8.648;2022-12-04T00:42:31;75.00;;;29.00;;
19004;SDS011;9635;52.078;8.648;2022-12-04T00:47:34;78.65;;;29.80;;
19004;SDS011;9635;52.078;8.648;2022-12-04T00:52:38;80.00;;;32.50;;
19004;SDS011;9635;52.078;8.648;2022-12-04T00:57:41;82.15;;;32.08;;
19004;SDS011;9635;52.078;8.648;2022-12-04T01:02:44;78.30;;;31.00;;
19004;SDS011;9635;52.078;8.648;2022-12-04T01:07:48;74.75;;;29.98;;
19004;SDS011;9635;52.078;8.648;2022-12-04T01:12:51;76.13;;;31.15;;
19004;SDS011;9635;52.078;8.648;2022-12-04T01:17:54;82.75;;;33.00;;
19004;SDS011;9635;52.078;8.648;2022-12-04T01:22:58;86.93;;;34.42;;
19004;SDS011;9635;52.078;8.648;2022-12-04T01:28:01;88.28;;;31.27;;
19004;SDS011;9635;52.078;8.648;2022-12-04T01:33:04;85.82;;;32.10;;
19004;SDS011;9635;52.078;8.648;2022-12-04T01:38:08;87.38;;;31.85;;
19004;SDS011;9635;52.078;8.648;2022-12-04T01:43:11;95.18;;;34.63;;
19004;SDS011;9635;52.078;8.648;2022-12-04T01:48:18;83.05;;;36.38;;
19004;SDS011;9635;52.078;8.648;2022-12-04T01:53:28;89.47;;;33.47;;
19004;SDS011;9635;52.078;8.648;2022-12-04T01:58:34;83.53;;;30.20;;
19004;SDS011;9635;52.078;8.648;2022-12-04T02:03:41;78.03;;;30.55;;
19004;SDS011;9635;52.078;8.648;2022-12-04T02:08:45;77.05;;;29.80;;
19004;SDS011;9635;52.078;8.648;2022-12-04T02:13:51;76.20;;;29.15;;
19004;SDS011;9635;52.078;8.648;2022-12-04T02:19:03;78.38;;;29.45;;
19004;SDS011;9635;52.078;8.648;2022-12-04T02:29:53;72.93;;;27.20;;
19004;SDS011;9635;52.078;8.648;2022-12-04T02:35:01;74.07;;;25.95;;
19004;SDS011;9635;52.078;8.648;2022-12-04T02:40:09;67.32;;;26.85;;
19004;SDS011;9635;52.078;8.648;2022-12-04T02:45:18;61.88;;;24.88;;
19004;SDS011;9635;52.078;8.648;2022-12-04T02:50:25;61.03;;;26.52;;
19004;SDS011;9635;52.078;8.648;2022-12-04T02:55:31;66.25;;;27.77;;
19004;SDS011;9635;52.078;8.648;2022-12-04T03:00:40;69.28;;;25.30;;
19004;SDS011;9635;52.078;8.648;2022-12-04T03:05:47;58.85;;;23.98;;
19004;SDS011;9635;52.078;8.648;2022-12-04T03:10:55;63.72;;;24.30;;
19004;SDS011;9635;52.078;8.648;2022-12-04T03:16:04;51.45;;;21.67;;
19004;SDS011;9635;52.078;8.648;2022-12-04T03:21:11;56.88;;;23.15;;
19004;SDS011;9635;52.078;8.648;2022-12-04T03:26:21;58.78;;;23.17;;
19004;SDS011;9635;52.078;8.648;2022-12-04T03:31:31;56.65;;;22.92;;
19004;SDS011;9635;52.078;8.648;2022-12-04T03:36:42;50.83;;;21.08;;
19004;SDS011;9635;52.078;8.648;2022-12-04T03:41:53;58.40;;;24.90;;
19004;SDS011;9635;52.078;8.648;2022-12-04T03:47:03;65.90;;;24.48;;
19004;SDS011;9635;52.078;8.648;2022-12-04T03:52:11;59.88;;;21.50;;
19004;SDS011;9635;52.078;8.648;2022-12-04T03:57:19;61.03;;;22.50;;
19004;SDS011;9635;52.078;8.648;2022-12-04T04:02:27;65.53;;;23.15;;
19004;SDS011;9635;52.078;8.648;2022-12-04T04:07:36;54.25;;;21.83;;
19004;SDS011;9635;52.078;8.648;2022-12-04T04:12:44;53.10;;;19.17;;
19004;SDS011;9635;52.078;8.648;2022-12-04T04:18:13;54.90;;;21.60;;
19004;SDS011;9635;52.078;8.648;2022-12-04T04:23:35;60.83;;;21.63;;
19004;SDS011;9635;52.078;8.648;2022-12-04T04:28:59;52.88;;;19.50;;
19004;SDS011;9635;52.078;8.648;2022-12-04T04:34:04;57.88;;;20.83;;
19004;SDS011;9635;52.078;8.648;2022-12-04T04:39:17;56.78;;;21.02;;
19004;SDS011;9635;52.078;8.648;2022-12-04T04:44:28;48.05;;;18.80;;
19004;SDS011;9635;52.078;8.648;2022-12-04T04:49:36;41.67;;;16.85;;
19004;SDS011;9635;52.078;8.648;2022-12-04T04:54:42;47.92;;;17.27;;
19004;SDS011;9635;52.078;8.648;2022-12-04T04:59:46;40.63;;;16.48;;
19004;SDS011;9635;52.078;8.648;2022-12-04T05:04:50;43.38;;;16.58;;
19004;SDS011;9635;52.078;8.648;2022-12-04T05:09:52;41.72;;;16.77;;
19004;SDS011;9635;52.078;8.648;2022-12-04T05:14:56;41.47;;;18.35;;
19004;SDS011;9635;52.078;8.648;2022-12-04T05:20:00;49.72;;;17.70;;
19004;SDS011;9635;52.078;8.648;2022-12-04T05:25:03;41.72;;;16.95;;
19004;SDS011;9635;52.078;8.648;2022-12-04T05:30:06;44.10;;;17.42;;
19004;SDS011;9635;52.078;8.648;2022-12-04T05:35:12;43.78;;;16.23;;
19004;SDS011;9635;52.078;8.648;2022-12-04T05:40:15;41.88;;;16.25;;
19004;SDS011;9635;52.078;8.648;2022-12-04T05:45:18;36.42;;;16.70;;
19004;SDS011;9635;52.078;8.648;2022-12-04T05:50:22;37.47;;;15.30;;
19004;SDS011;9635;52.078;8.648;2022-12-04T05:55:25;33.58;;;16.02;;
19004;SDS011;9635;52.078;8.648;2022-12-04T06:00:28;33.28;;;13.98;;
19004;SDS011;9635;52.078;8.648;2022-12-04T06:05:32;37.03;;;15.40;;
19004;SDS011;9635;52.078;8.648;2022-12-04T06:10:35;33.13;;;13.55;;
19004;SDS011;9635;52.078;8.648;2022-12-04T06:15:39;33.63;;;14.75;;
19004;SDS011;9635;52.078;8.648;2022-12-04T06:20:43;32.35;;;14.10;;
19004;SDS011;9635;52.078;8.648;2022-12-04T06:25:46;29.83;;;13.65;;
19004;SDS011;9635;52.078;8.648;2022-12-04T06:30:49;31.92;;;13.88;;
19004;SDS011;9635;52.078;8.648;2022-12-04T06:35:57;33.35;;;13.77;;
19004;SDS011;9635;52.078;8.648;2022-12-04T06:41:02;32.80;;;14.05;;
19004;SDS011;9635;52.078;8.648;2022-12-04T06:46:06;32.67;;;15.27;;
19004;SDS011;9635;52.078;8.648;2022-12-04T06:51:12;33.28;;;15.43;;
19004;SDS011;9635;52.078;8.648;2022-12-04T06:56:17;33.15;;;15.70;;
19004;SDS011;9635;52.078;8.648;2022-12-04T07:01:23;42.08;;;15.30;;
19004;SDS011;9635;52.078;8.648;2022-12-04T07:06:30;38.08;;;15.77;;
19004;SDS011;9635;52.078;8.648;2022-12-04T07:11:34;37.42;;;16.42;;
19004;SDS011;9635;52.078;8.648;2022-12-04T07:16:37;35.80;;;15.52;;
19004;SDS011;9635;52.078;8.648;2022-12-04T07:21:44;40.15;;;16.45;;
19004;SDS011;9635;52.078;8.648;2022-12-04T07:26:46;38.33;;;16.27;;
19004;SDS011;9635;52.078;8.648;2022-12-04T07:31:49;41.97;;;16.95;;
19004;SDS011;9635;52.078;8.648;2022-12-04T07:36:54;37.55;;;16.30;;
19004;SDS011;9635;52.078;8.648;2022-12-04T07:41:56;38.83;;;17.05;;
19004;SDS011;9635;52.078;8.648;2022-12-04T07:46:59;45.33;;;18.75;;
19004;SDS011;9635;52.078;8.648;2022-12-04T07:52:04;41.60;;;18.50;;
19004;SDS011;9635;52.078;8.648;2022-12-04T07:57:07;38.70;;;17.27;;
19004;SDS011;9635;52.078;8.648;2022-12-04T08:02:10;41.97;;;18.67;;
19004;SDS011;9635;52.078;8.648;2022-12-04T08:07:15;45.35;;;19.23;;
19004;SDS011;9635;52.078;8.648;2022-12-04T08:12:18;45.60;;;19.38;;
19004;SDS011;9635;52.078;8.648;2022-12-04T08:17:21;48.25;;;20.70;;
19004;SDS011;9635;52.078;8.648;2022-12-04T08:22:25;49.78;;;20.45;;
19004;SDS011;9635;52.078;8.648;2022-12-04T08:27:28;47.80;;;19.92;;
19004;SDS011;9635;52.078;8.648;2022-12-04T08:32:32;51.60;;;22.73;;
19004;SDS011;9635;52.078;8.648;2022-12-04T08:37:36;50.95;;;22.48;;
19004;SDS011;9635;52.078;8.648;2022-12-04T08:42:39;57.22;;;22.13;;
19004;SDS011;9635;52.078;8.648;2022-12-04T08:47:42;64.38;;;26.58;;
19004;SDS011;9635;52.078;8.648;2022-12-04T08:52:53;61.03;;;25.00;;
19004;SDS011;9635;52.078;8.648;2022-12-04T08:57:56;55.58;;;21.98;;
19004;SDS011;9635;52.078;8.648;2022-12-04T09:02:59;62.65;;;22.77;;
19004;SDS011;9635;52.078;8.648;2022-12-04T09:08:03;63.95;;;26.23;;
19004;SDS011;9635;52.078;8.648;2022-12-04T09:13:07;59.63;;;25.30;;
19004;SDS011;9635;52.078;8.648;2022-12-04T09:18:10;66.32;;;27.27;;
19004;SDS011;9635;52.078;8.648;2022-12-04T09:23:14;69.30;;;27.75;;
19004;SDS011;9635;52.078;8.648;2022-12-04T09:28:17;64.05;;;26.55;;
19004;SDS011;9635;52.078;8.648;2022-12-04T09:33:20;70.68;;;27.45;;
19004;SDS011;9635;52.078;8.648;2022-12-04T09:38:24;67.65;;;27.83;;
19004;SDS011;9635;52.078;8.648;2022-12-04T09:43:29;69.93;;;26.80;;
19004;SDS011;9635;52.078;8.648;2022-12-04T09:48:38;66.15;;;28.88;;
19004;SDS011;9635;52.078;8.648;2022-12-04T09:53:46;61.28;;;25.73;;
19004;SDS011;9635;52.078;8.648;2022-12-04T09:58:52;65.40;;;27.73;;
19004;SDS011;9635;52.078;8.648;2022-12-04T10:03:58;59.75;;;26.25;;
19004;SDS011;9635;52.078;8.648;2022-12-04T10:09:09;69.90;;;25.67;;
19004;SDS011;9635;52.078;8.648;2022-12-04T10:14:31;64.65;;;26.58;;
19004;SDS011;9635;52.078;8.648;2022-12-04T10:19:49;60.80;;;26.88;;
19004;SDS011;9635;52.078;8.648;2022-12-04T10:25:02;60.65;;;25.25;;
19004;SDS011;9635;52.078;8.648;2022-12-04T10:30:13;59.17;;;25.97;;
19004;SDS011;9635;52.078;8.648;2022-12-04T10:35:21;61.67;;;28.25;;
19004;SDS011;9635;52.078;8.648;2022-12-04T10:40:29;63.33;;;27.50;;
19004;SDS011;9635;52.078;8.648;2022-12-04T10:45:35;64.85;;;27.25;;
19004;SDS011;9635;52.078;8.648;2022-12-04T10:50:38;66.15;;;27.50;;
19004;SDS011;9635;52.078;8.648;2022-12-04T10:55:43;63.70;;;29.25;;
19004;SDS011;9635;52.078;8.648;2022-12-04T11:00:55;61.78;;;26.77;;
19004;SDS011;9635;52.078;8.648;2022-12-04T11:06:03;67.32;;;27.75;;
19004;SDS011;9635;52.078;8.648;2022-12-04T11:11:11;64.88;;;27.60;;
19004;SDS011;9635;52.078;8.648;2022-12-04T11:16:26;60.22;;;27.45;;
19004;SDS011;9635;52.078;8.648;2022-12-04T11:21:35;64.65;;;28.70;;
19004;SDS011;9635;52.078;8.648;2022-12-04T11:26:41;69.50;;;28.45;;
19004;SDS011;9635;52.078;8.648;2022-12-04T11:31:46;68.68;;;28.75;;
19004;SDS011;9635;52.078;8.648;2022-12-04T11:36:51;67.97;;;29.48;;
19004;SDS011;9635;52.078;8.648;2022-12-04T11:42:01;60.45;;;26.45;;
19004;SDS011;9635;52.078;8.648;2022-12-04T11:47:13;62.30;;;28.13;;
19004;SDS011;9635;52.078;8.648;2022-12-04T11:52:21;66.93;;;29.73;;
19004;SDS011;9635;52.078;8.648;2022-12-04T11:57:30;64.45;;;27.70;;
19004;SDS011;9635;52.078;8.648;2022-12-04T12:02:49;69.30;;;30.35;;
19004;SDS011;9635;52.078;8.648;2022-12-04T12:08:13;63.95;;;26.50;;
19004;SDS011;9635;52.078;8.648;2022-12-04T12:13:28;72.28;;;30.23;;
19004;SDS011;9635;52.078;8.648;2022-12-04T12:18:48;66.07;;;28.90;;
19004;SDS011;9635;52.078;8.648;2022-12-04T12:24:14;65.22;;;27.65;;
19004;SDS011;9635;52.078;8.648;2022-12-04T12:34:51;67.00;;;30.42;;
19004;SDS011;9635;52.078;8.648;2022-12-04T12:39:56;60.88;;;27.92;;
19004;SDS011;9635;52.078;8.648;2022-12-04T12:45:05;67.30;;;26.88;;
19004;SDS011;9635;52.078;8.648;2022-12-04T12:50:21;67.00;;;29.00;;
19004;SDS011;9635;52.078;8.648;2022-12-04T12:55:28;62.05;;;27.48;;
19004;SDS011;9635;52.078;8.648;2022-12-04T13:00:37;68.90;;;28.23;;
19004;SDS011;9635;52.078;8.648;2022-12-04T13:05:45;63.65;;;29.02;;
19004;SDS011;9635;52.078;8.648;2022-12-04T13:10:55;66.82;;;29.77;;
19004;SDS011;9635;52.078;8.648;2022-12-04T13:16:05;69.95;;;29.45;;
19004;SDS011;9635;52.078;8.648;2022-12-04T13:21:18;76.22;;;31.10;;
19004;SDS011;9635;52.078;8.648;2022-12-04T13:26:34;64.93;;;26.73;;
19004;SDS011;9635;52.078;8.648;2022-12-04T13:31:53;65.95;;;30.13;;
19004;SDS011;9635;52.078;8.648;2022-12-04T13:37:12;63.50;;;29.15;;
19004;SDS011;9635;52.078;8.648;2022-12-04T13:42:27;61.90;;;27.13;;
19004;SDS011;9635;52.078;8.648;2022-12-04T13:47:32;67.95;;;29.90;;
19004;SDS011;9635;52.078;8.648;2022-12-04T13:52:37;66.97;;;30.10;;
19004;SDS011;9635;52.078;8.648;2022-12-04T13:57:51;69.95;;;29.92;;
19004;SDS011;9635;52.078;8.648;2022-12-04T14:02:56;66.47;;;28.30;;
19004;SDS011;9635;52.078;8.648;2022-12-04T14:08:02;62.58;;;28.40;;
19004;SDS011;9635;52.078;8.648;2022-12-04T14:13:14;61.72;;;27.95;;
19004;SDS011;9635;52.078;8.648;2022-12-04T14:18:25;63.60;;;28.05;;
19004;SDS011;9635;52.078;8.648;2022-12-04T14:23:35;71.57;;;30.45;;
19004;SDS011;9635;52.078;8.648;2022-12-04T14:28:40;68.47;;;30.67;;
19004;SDS011;9635;52.078;8.648;2022-12-04T14:33:48;68.63;;;30.50;;
19004;SDS011;9635;52.078;8.648;2022-12-04T14:39:04;68.05;;;30.23;;
19004;SDS011;9635;52.078;8.648;2022-12-04T14:44:17;76.72;;;31.08;;
19004;SDS011;9635;52.078;8.648;2022-12-04T14:49:31;66.47;;;28.80;;
19004;SDS011;9635;52.078;8.648;2022-12-04T14:54:43;67.72;;;28.60;;
19004;SDS011;9635;52.078;8.648;2022-12-04T14:59:54;65.55;;;28.52;;
19004;SDS011;9635;52.078;8.648;2022-12-04T15:04:59;62.13;;;27.45;;
19004;SDS011;9635;52.078;8.648;2022-12-04T15:10:16;66.57;;;27.27;;
19004;SDS011;9635;52.078;8.648;2022-12-04T15:15:43;69.95;;;30.40;;
19004;SDS011;9635;52.078;8.648;2022-12-04T15:20:53;63.22;;;27.42;;
19004;SDS011;9635;52.078;8.648;2022-12-04T15:25:58;65.50;;;27.27;;
19004;SDS011;9635;52.078;8.648;2022-12-04T15:31:03;66.78;;;28.60;;
19004;SDS011;9635;52.078;8.648;2022-12-04T15:36:13;60.58;;;25.95;;
19004;SDS011;9635;52.078;8.648;2022-12-04T15:41:27;62.42;;;25.80;;
19004;SDS011;9635;52.078;8.648;2022-12-04T15:46:33;65.63;;;27.45;;
19004;SDS011;9635;52.078;8.648;2022-12-04T15:51:39;67.47;;;29.23;;
19004;SDS011;9635;52.078;8.648;2022-12-04T15:56:42;58.63;;;26.02;;
19004;SDS011;9635;52.078;8.648;2022-12-04T16:01:45;65.60;;;27.92;;
19004;SDS011;9635;52.078;8.648;2022-12-04T16:06:50;59.33;;;25.90;;
19004;SDS011;9635;52.078;8.648;2022-12-04T16:11:57;60.35;;;27.15;;
19004;SDS011;9635;52.078;8.648;2022-12-04T16:17:01;55.67;;;25.60;;
19004;SDS011;9635;52.078;8.648;2022-12-04T16:22:11;65.80;;;27.48;;
19004;SDS011;9635;52.078;8.648;2022-12-04T16:27:21;60.53;;;26.33;;
19004;SDS011;9635;52.078;8.648;2022-12-04T16:32:30;58.10;;;25.35;;
19004;SDS011;9635;52.078;8.648;2022-12-04T16:37:35;66.60;;;26.58;;
19004;SDS011;9635;52.078;8.648;2022-12-04T16:42:38;52.85;;;23.58;;
19004;SDS011;9635;52.078;8.648;2022-12-04T16:47:41;56.10;;;26.48;;
19004;SDS011;9635;52.078;8.648;2022-12-04T16:52:47;53.83;;;24.85;;
19004;SDS011;9635;52.078;8.648;2022-12-04T16:57:49;61.50;;;26.15;;
19004;SDS011;9635;52.078;8.648;2022-12-04T17:02:52;67.85;;;28.20;;
19004;SDS011;9635;52.078;8.648;2022-12-04T17:07:56;62.30;;;26.83;;
19004;SDS011;9635;52.078;8.648;2022-12-04T17:12:59;61.58;;;26.58;;
19004;SDS011;9635;52.078;8.648;2022-12-04T17:18:02;60.40;;;24.33;;
19004;SDS011;9635;52.078;8.648;2022-12-04T17:23:13;57.95;;;25.65;;
19004;SDS011;9635;52.078;8.648;2022-12-04T17:28:17;56.33;;;26.48;;
19004;SDS011;9635;52.078;8.648;2022-12-04T17:33:19;64.28;;;26.52;;
19004;SDS011;9635;52.078;8.648;2022-12-04T17:38:24;61.33;;;24.75;;
19004;SDS011;9635;52.078;8.648;2022-12-04T17:43:27;55.13;;;24.60;;
19004;SDS011;9635;52.078;8.648;2022-12-04T17:48:30;63.17;;;28.73;;
19004;SDS011;9635;52.078;8.648;2022-12-04T17:53:34;58.80;;;25.88;;
19004;SDS011;9635;52.078;8.648;2022-12-04T17:58:38;54.13;;;25.40;;
19004;SDS011;9635;52.078;8.648;2022-12-04T18:03:41;51.63;;;23.65;;
19004;SDS011;9635;52.078;8.648;2022-12-04T18:08:47;52.33;;;23.60;;
19004;SDS011;9635;52.078;8.648;2022-12-04T18:13:53;51.45;;;24.88;;
19004;SDS011;9635;52.078;8.648;2022-12-04T18:18:58;52.13;;;22.30;;
19004;SDS011;9635;52.078;8.648;2022-12-04T18:24:03;55.78;;;26.27;;
19004;SDS011;9635;52.078;8.648;2022-12-04T18:29:06;50.22;;;25.92;;
19004;SDS011;9635;52.078;8.648;2022-12-04T18:34:10;57.33;;;25.83;;
19004;SDS011;9635;52.078;8.648;2022-12-04T18:39:16;54.72;;;27.27;;
19004;SDS011;9635;52.078;8.648;2022-12-04T18:44:19;50.00;;;23.55;;
19004;SDS011;9635;52.078;8.648;2022-12-04T18:49:22;58.65;;;24.73;;
19004;SDS011;9635;52.078;8.648;2022-12-04T18:54:26;54.53;;;24.67;;
19004;SDS011;9635;52.078;8.648;2022-12-04T18:59:29;51.97;;;22.17;;
19004;SDS011;9635;52.078;8.648;2022-12-04T19:04:33;49.72;;;21.42;;
19004;SDS011;9635;52.078;8.648;2022-12-04T19:09:37;46.58;;;22.77;;
19004;SDS011;9635;52.078;8.648;2022-12-04T19:15:00;47.67;;;23.50;;
19004;SDS011;9635;52.078;8.648;2022-12-04T19:20:03;48.90;;;24.48;;
19004;SDS011;9635;52.078;8.648;2022-12-04T19:25:08;44.13;;;22.42;;
19004;SDS011;9635;52.078;8.648;2022-12-04T19:30:11;45.03;;;20.65;;
19004;SDS011;9635;52.078;8.648;2022-12-04T19:35:14;48.72;;;21.58;;
19004;SDS011;9635;52.078;8.648;2022-12-04T19:40:19;40.55;;;21.35;;
19004;SDS011;9635;52.078;8.648;2022-12-04T19:45:22;47.03;;;20.85;;
19004;SDS011;9635;52.078;8.648;2022-12-04T19:50:25;43.35;;;20.33;;
19004;SDS011;9635;52.078;8.648;2022-12-04T19:55:29;42.33;;;20.85;;
19004;SDS011;9635;52.078;8.648;2022-12-04T20:00:32;48.10;;;22.95;;
19004;SDS011;9635;52.078;8.648;2022-12-04T20:05:35;48.47;;;23.63;;
19004;SDS011;9635;52.078;8.648;2022-12-04T20:10:40;46.35;;;22.20;;
19004;SDS011;9635;52.078;8.648;2022-12-04T20:15:43;54.38;;;24.38;;
19004;SDS011;9635;52.078;8.648;2022-12-04T20:20:52;52.47;;;25.23;;
19004;SDS011;9635;52.078;8.648;2022-12-04T20:26:01;42.25;;;21.65;;
19004;SDS011;9635;52.078;8.648;2022-12-04T20:31:09;46.38;;;23.13;;
19004;SDS011;9635;52.078;8.648;2022-12-04T20:36:14;54.05;;;26.55;;
19004;SDS011;9635;52.078;8.648;2022-12-04T20:41:20;52.60;;;24.10;;
19004;SDS011;9635;52.078;8.648;2022-12-04T20:46:24;47.47;;;22.05;;
19004;SDS011;9635;52.078;8.648;2022-12-04T20:51:29;46.80;;;23.00;;
19004;SDS011;9635;52.078;8.648;2022-12-04T20:56:35;50.97;;;22.48;;
19004;SDS011;9635;52.078;8.648;2022-12-04T21:01:39;50.45;;;22.27;;
19004;SDS011;9635;52.078;8.648;2022-12-04T21:06:43;56.50;;;23.38;;
19004;SDS011;9635;52.078;8.648;2022-12-04T21:11:48;48.13;;;23.95;;
19004;SDS011;9635;52.078;8.648;2022-12-04T21:16:52;46.75;;;21.60;;
19004;SDS011;9635;52.078;8.648;2022-12-04T21:21:55;50.20;;;22.90;;
19004;SDS011;9635;52.078;8.648;2022-12-04T21:26:59;51.20;;;23.38;;
19004;SDS011;9635;52.078;8.648;2022-12-04T21:32:02;47.45;;;21.67;;
19004;SDS011;9635;52.078;8.648;2022-12-04T21:37:06;46.35;;;21.98;;
19004;SDS011;9635;52.078;8.648;2022-12-04T21:42:11;48.40;;;22.30;;
19004;SDS011;9635;52.078;8.648;2022-12-04T21:52:34;46.65;;;20.90;;
19004;SDS011;9635;52.078;8.648;2022-12-04T21:57:39;45.95;;;21.83;;
19004;SDS011;9635;52.078;8.648;2022-12-04T22:02:42;52.92;;;22.35;;
19004;SDS011;9635;52.078;8.648;2022-12-04T22:07:45;48.60;;;22.13;;
19004;SDS011;9635;52.078;8.648;2022-12-04T22:12:49;54.30;;;23.27;;
19004;SDS011;9635;52.078;8.648;2022-12-04T22:17:52;52.75;;;23.15;;
19004;SDS011;9635;52.078;8.648;2022-12-04T22:22:54;54.47;;;22.98;;
19004;SDS011;9635;52.078;8.648;2022-12-04T22:27:59;49.28;;;22.50;;
19004;SDS011;9635;52.078;8.648;2022-12-04T22:33:02;58.35;;;25.20;;
19004;SDS011;9635;52.078;8.648;2022-12-04T22:38:05;52.92;;;23.08;;
19004;SDS011;9635;52.078;8.648;2022-12-04T22:43:09;57.63;;;23.42;;
19004;SDS011;9635;52.078;8.648;2022-12-04T22:48:12;58.53;;;24.52;;
19004;SDS011;9635;52.078;8.648;2022-12-04T22:53:15;58.30;;;24.42;;
19004;SDS011;9635;52.078;8.648;2022-12-04T22:58:20;56.45;;;24.98;;
19004;SDS011;9635;52.078;8.648;2022-12-04T23:03:23;55.55;;;24.05;;
19004;SDS011;9635;52.078;8.648;2022-12-04T23:08:26;56.05;;;24.35;;
19004;SDS011;9635;52.078;8.648;2022-12-04T23:13:30;61.80;;;25.15;;
19004;SDS011;9635;52.078;8.648;2022-12-04T23:18:33;52.22;;;23.98;;
19004;SDS011;9635;52.078;8.648;2022-12-04T23:23:38;58.42;;;24.17;;
19004;SDS011;9635;52.078;8.648;2022-12-04T23:28:43;52.08;;;22.98;;
19004;SDS011;9635;52.078;8.648;2022-12-04T23:33:47;57.45;;;22.92;;
19004;SDS011;9635;52.078;8.648;2022-12-04T23:38:49;55.40;;;25.27;;
19004;SDS011;9635;52.078;8.648;2022-12-04T23:43:54;57.88;;;24.23;;
19004;SDS011;9635;52.078;8.648;2022-12-04T23:48:58;63.13;;;25.15;;
19004;SDS011;9635;52.078;8.648;2022-12-04T23:54:01;66.40;;;27.38;;
19004;SDS011;9635;52.078;8.648;2022-12-04T23:59:06;61.60;;;25.35;;
